< < Back
Terminal Aerodrome Forecast


Current Version              Previous Versions:   1  2  3  4  5  6  7  8  9  

Terminal Aerodrome Forecast

870
FTUS42 KTAE 292000 AAA
TAFDHN
TAF AMD
KDHN 292020Z 2920/3018 13007KT P6SM BKN070
      TEMPO 2920/2924 5SM -RA
     FM300200 VRB04KT P6SM FEW040 BKN250
     FM301500 17006KT P6SM BKN050=



Latest METAR

328
SAUS70 KWBC 300000 RRG
MTRDHN
METAR KDHN 292353Z 09005KT 10SM BKN075 OVC100 27/21 A3004 RMK AO2 SLP167
T02670206 10356 20267 53002


USA.gov is the U.S. government's official web portal to all federal, state and local government web resources and services.